createdAt,value
2022-08-19T00:00:36.930Z,55.61
2022-08-19T00:01:38.051Z,56.3
2022-08-19T00:02:36.946Z,56.3
2022-08-19T00:03:36.925Z,56.25
2022-08-19T00:04:36.975Z,56.18
2022-08-19T00:05:36.922Z,56.59
2022-08-19T00:06:36.930Z,56.02
2022-08-19T00:07:36.933Z,56.71
2022-08-19T00:08:36.921Z,57.04
2022-08-19T00:09:36.927Z,56.49
2022-08-19T00:10:36.922Z,56.19
2022-08-19T00:11:36.912Z,56.88
2022-08-19T00:12:36.912Z,57.14
2022-08-19T00:13:36.943Z,56.92
2022-08-19T00:14:36.912Z,57.02
2022-08-19T00:15:36.907Z,56.77
2022-08-19T00:16:36.912Z,57.72
2022-08-19T00:17:36.912Z,57.65
2022-08-19T00:18:36.920Z,57.96
2022-08-19T00:19:36.911Z,57.53
2022-08-19T00:20:36.903Z,57.73
2022-08-19T00:21:36.917Z,58.1
2022-08-19T00:22:36.899Z,57.65
2022-08-19T00:23:36.898Z,57.69
2022-08-19T00:24:36.893Z,58.05
2022-08-19T00:25:36.912Z,57.9
2022-08-19T00:26:36.904Z,58.33
2022-08-19T00:27:36.912Z,58.24
2022-08-19T00:28:36.895Z,58.13
2022-08-19T00:29:36.898Z,58.27
2022-08-19T00:30:36.905Z,57.98
2022-08-19T00:31:36.908Z,58.37
2022-08-19T00:32:36.892Z,58.6
2022-08-19T00:33:36.892Z,58.38
2022-08-19T00:34:36.887Z,58.83
2022-08-19T00:35:36.899Z,58.23
2022-08-19T00:36:36.884Z,58.56
2022-08-19T00:37:36.886Z,58.55
2022-08-19T00:38:37.470Z,58.68
2022-08-19T00:39:36.955Z,58.6
2022-08-19T00:40:36.889Z,58.58
2022-08-19T00:41:36.882Z,58.71
2022-08-19T00:42:36.892Z,59.31
2022-08-19T00:43:36.878Z,58.94
2022-08-19T00:44:36.886Z,58.66
2022-08-19T00:45:36.880Z,58.75
2022-08-19T00:46:36.884Z,59.08
2022-08-19T00:47:36.875Z,58.97
2022-08-19T00:48:36.869Z,59.18
2022-08-19T00:49:36.870Z,59.5
2022-08-19T00:50:36.880Z,59.41
2022-08-19T00:51:36.870Z,59.22
2022-08-19T00:52:36.879Z,59.15
2022-08-19T00:53:36.869Z,59.45
2022-08-19T00:54:36.865Z,59.33
2022-08-19T00:55:36.869Z,59.4
2022-08-19T00:56:36.867Z,59.56
2022-08-19T00:57:36.874Z,59.51
2022-08-19T00:58:36.869Z,59.31
2022-08-19T01:00:01.186Z,59.72
2022-08-19T01:00:36.862Z,59.76
2022-08-19T01:01:36.991Z,59.61
2022-08-19T01:02:36.886Z,59.05
2022-08-19T01:03:56.821Z,59.69
2022-08-19T01:04:36.850Z,59.47
2022-08-19T01:05:36.846Z,59.77
2022-08-19T01:06:36.867Z,59.69
2022-08-19T01:07:38.097Z,59.58
2022-08-19T01:08:36.853Z,59.87
2022-08-19T01:09:36.877Z,59.75
2022-08-19T01:10:37.048Z,59.63
2022-08-19T01:11:36.850Z,59.91
2022-08-19T01:12:36.853Z,59.48
2022-08-19T01:13:49.448Z,59.39
2022-08-19T01:14:36.843Z,59.34
2022-08-19T01:15:36.844Z,59.9
2022-08-19T01:16:36.846Z,59.81
2022-08-19T01:17:36.849Z,59.91
2022-08-19T01:18:36.849Z,60.2
2022-08-19T01:19:43.566Z,59.82
2022-08-19T01:20:36.844Z,59.93
2022-08-19T01:21:36.836Z,60
2022-08-19T01:22:36.832Z,59.95
2022-08-19T01:23:36.841Z,60.13
2022-08-19T01:24:36.835Z,59.9
2022-08-19T01:25:36.831Z,60.03
2022-08-19T01:26:36.835Z,60.02
2022-08-19T01:27:42.993Z,59.6
2022-08-19T01:28:40.165Z,59.87
2022-08-19T01:29:36.822Z,60.29
2022-08-19T01:30:36.828Z,60.25
2022-08-19T01:31:36.829Z,60.08
2022-08-19T01:32:36.838Z,59.77
2022-08-19T01:33:36.835Z,59.84
2022-08-19T01:34:36.833Z,60.18
2022-08-19T01:35:36.819Z,59.94
2022-08-19T01:36:36.816Z,60.06
2022-08-19T01:37:36.826Z,60.15
2022-08-19T01:38:36.817Z,60.18
2022-08-19T01:39:36.889Z,60.16
2022-08-19T01:40:36.826Z,60.12
2022-08-19T01:41:36.817Z,60.04
2022-08-19T01:42:36.807Z,60.13
2022-08-19T01:43:36.809Z,59.95
2022-08-19T01:44:36.809Z,60.09
2022-08-19T01:45:36.824Z,59.91
2022-08-19T01:46:36.805Z,59.99
2022-08-19T01:47:36.812Z,60.01
2022-08-19T01:48:36.797Z,59.99
2022-08-19T01:49:36.803Z,60.06
2022-08-19T01:50:36.820Z,60.16
2022-08-19T01:51:39.861Z,60.01
2022-08-19T01:52:36.809Z,59.77
2022-08-19T01:53:36.802Z,59.71
2022-08-19T01:54:36.799Z,59.44
2022-08-19T01:55:36.804Z,59.93
2022-08-19T01:56:36.792Z,60.09
2022-08-19T01:57:36.804Z,59.93
2022-08-19T01:58:36.792Z,59.94
2022-08-19T01:59:36.789Z,59.72
2022-08-19T02:00:36.788Z,59.89
2022-08-19T02:01:36.871Z,59.99
2022-08-19T02:02:36.823Z,59.87
2022-08-19T02:03:36.788Z,59.95
2022-08-19T02:04:36.789Z,60.05
2022-08-19T02:05:36.794Z,60.04
2022-08-19T02:06:36.786Z,60.02
2022-08-19T02:07:36.793Z,59.82
2022-08-19T02:08:36.778Z,59.79
2022-08-19T02:09:36.775Z,59.95
2022-08-19T02:10:36.779Z,59.83
2022-08-19T02:11:36.792Z,60.18
2022-08-19T02:12:36.782Z,60.23
2022-08-19T02:13:36.785Z,60.07
2022-08-19T02:14:36.772Z,59.68
2022-08-19T02:15:36.767Z,60.23
2022-08-19T02:16:36.777Z,60.24
2022-08-19T02:17:36.770Z,60.19
2022-08-19T02:18:36.777Z,60.12
2022-08-19T02:19:36.765Z,60.17
2022-08-19T02:20:36.763Z,60.01
2022-08-19T02:21:36.773Z,60.27
2022-08-19T02:22:36.770Z,60.1
2022-08-19T02:23:36.774Z,60.21
2022-08-19T02:24:36.758Z,60.44
2022-08-19T02:25:36.759Z,60.44
2022-08-19T02:26:36.765Z,60.28
2022-08-19T02:27:36.758Z,60.27
2022-08-19T02:28:36.765Z,60.4
2022-08-19T02:29:36.762Z,60.81
2022-08-19T02:30:36.757Z,60.59
2022-08-19T02:31:36.769Z,60.74
2022-08-19T02:32:44.494Z,60.81
2022-08-19T02:33:36.746Z,60.73
2022-08-19T02:34:36.749Z,60.73
2022-08-19T02:35:36.752Z,60.79
2022-08-19T02:36:36.755Z,60.92
2022-08-19T02:37:36.748Z,60.77
2022-08-19T02:38:36.746Z,60.92
2022-08-19T02:39:36.782Z,60.71
2022-08-19T02:40:36.747Z,60.79
2022-08-19T02:41:36.749Z,60.64
2022-08-19T02:42:36.741Z,60.88
2022-08-19T02:43:36.743Z,60.59
2022-08-19T02:44:36.744Z,60.9
2022-08-19T02:45:36.742Z,60.97
2022-08-19T02:46:36.759Z,60.81
2022-08-19T02:47:36.756Z,60.93
2022-08-19T02:48:36.761Z,60.58
2022-08-19T02:49:36.745Z,60.52
2022-08-19T02:50:36.747Z,60.67
2022-08-19T02:51:36.749Z,60.79
2022-08-19T02:52:36.744Z,60.86
2022-08-19T02:53:36.754Z,60.85
2022-08-19T02:54:36.746Z,60.89
2022-08-19T02:55:46.253Z,60.88
2022-08-19T02:56:36.745Z,60.9
2022-08-19T02:57:36.753Z,60.58
2022-08-19T02:58:36.743Z,60.91
2022-08-19T02:59:36.741Z,61.12
2022-08-19T03:00:36.737Z,60.9
2022-08-19T03:01:36.803Z,60.81
2022-08-19T03:02:36.772Z,61.03
2022-08-19T03:03:36.733Z,61.01
2022-08-19T03:04:36.740Z,60.81
2022-08-19T03:05:47.992Z,60.9
2022-08-19T03:06:36.720Z,60.78
2022-08-19T03:07:36.736Z,60.83
2022-08-19T03:08:36.737Z,60.78
2022-08-19T03:09:36.729Z,61
2022-08-19T03:10:36.725Z,60.99
2022-08-19T03:11:36.718Z,61.1
2022-08-19T03:12:36.728Z,61.04
2022-08-19T03:13:36.716Z,60.98
2022-08-19T03:14:36.722Z,60.94
2022-08-19T03:15:36.719Z,61.15
2022-08-19T03:16:36.714Z,61.03
2022-08-19T03:17:36.723Z,60.97
2022-08-19T03:18:36.711Z,60.69
2022-08-19T03:19:36.716Z,60.89
2022-08-19T03:20:36.708Z,61.06
2022-08-19T03:21:36.710Z,60.85
2022-08-19T03:22:36.715Z,60.46
2022-08-19T03:23:36.709Z,60.96
2022-08-19T03:24:36.705Z,60.87
2022-08-19T03:25:36.712Z,60.96
2022-08-19T03:26:36.705Z,61.12
2022-08-19T03:27:36.701Z,61.08
2022-08-19T03:28:36.708Z,61.12
2022-08-19T03:29:40.660Z,61.07
2022-08-19T03:30:36.712Z,61.06
2022-08-19T03:31:44.156Z,61.21
2022-08-19T03:32:36.697Z,61.01
2022-08-19T03:33:36.693Z,61
2022-08-19T03:34:36.702Z,60.93
2022-08-19T03:35:36.688Z,61.13
2022-08-19T03:36:36.693Z,61.04
2022-08-19T03:37:36.688Z,60.84
2022-08-19T03:38:36.691Z,61.06
2022-08-19T03:39:36.757Z,61.09
2022-08-19T03:40:36.696Z,60.92
2022-08-19T03:41:45.196Z,61.04
2022-08-19T03:42:49.368Z,61
2022-08-19T03:43:36.685Z,61.05
2022-08-19T03:44:36.693Z,60.72
2022-08-19T03:45:36.683Z,60.67
2022-08-19T03:46:36.688Z,60.9
2022-08-19T03:47:36.679Z,60.87
2022-08-19T03:48:36.678Z,60.91
2022-08-19T03:49:36.848Z,60.97
2022-08-19T03:50:36.682Z,60.7
2022-08-19T03:51:36.678Z,60.95
2022-08-19T03:52:36.680Z,60.69
2022-08-19T03:53:36.676Z,60.87
2022-08-19T03:54:36.679Z,60.17
2022-08-19T03:55:36.674Z,60.89
2022-08-19T03:56:36.671Z,60.89
2022-08-19T03:57:37.862Z,60.85
2022-08-19T03:58:36.677Z,60.69
2022-08-19T03:59:36.678Z,60.78
2022-08-19T04:00:36.663Z,60.65
2022-08-19T04:01:36.750Z,60.68
2022-08-19T04:02:36.697Z,60.65
2022-08-19T04:03:36.661Z,60.79
2022-08-19T04:04:36.671Z,60.83
2022-08-19T04:05:36.657Z,60.79
2022-08-19T04:06:39.596Z,60.51
2022-08-19T04:07:36.672Z,60.59
2022-08-19T04:08:36.666Z,60.59
2022-08-19T04:09:36.655Z,60.55
2022-08-19T04:10:36.660Z,60.48
2022-08-19T04:11:43.389Z,60.41
2022-08-19T04:12:36.657Z,60.6
2022-08-19T04:13:36.652Z,60.43
2022-08-19T04:14:36.654Z,60.31
2022-08-19T04:15:36.647Z,60.12
2022-08-19T04:16:36.645Z,59.57
2022-08-19T04:17:36.642Z,59.77
2022-08-19T04:18:36.651Z,59.99
2022-08-19T04:19:36.647Z,60.05
2022-08-19T04:20:36.647Z,59.97
2022-08-19T04:21:36.645Z,60.1
2022-08-19T04:22:36.650Z,59.97
2022-08-19T04:23:36.636Z,59.69
2022-08-19T04:24:36.641Z,59.58
2022-08-19T04:25:36.641Z,59.89
2022-08-19T04:26:36.631Z,59.84
2022-08-19T04:27:36.650Z,59.85
2022-08-19T04:28:36.635Z,59.23
2022-08-19T04:29:36.649Z,60.28
2022-08-19T04:30:36.631Z,60.76
2022-08-19T04:31:36.633Z,60.98
2022-08-19T04:32:36.634Z,60.44
2022-08-19T04:33:36.638Z,60.38
2022-08-19T04:34:36.632Z,60.79
2022-08-19T04:35:36.630Z,61.76
2022-08-19T04:36:36.621Z,60.2
2022-08-19T04:37:36.625Z,60.58
2022-08-19T04:38:36.625Z,60.06
2022-08-19T04:39:36.679Z,60.07
2022-08-19T04:40:36.623Z,59.24
2022-08-19T04:41:36.618Z,59.96
2022-08-19T04:42:36.618Z,59.14
2022-08-19T04:43:36.613Z,59.65
2022-08-19T04:44:36.616Z,58.79
2022-08-19T04:45:43.513Z,58.79
2022-08-19T04:46:39.218Z,58.12
2022-08-19T04:47:47.998Z,58.88
2022-08-19T04:48:36.614Z,58.53
2022-08-19T04:49:36.618Z,58.63
2022-08-19T04:50:36.603Z,58.38
2022-08-19T04:51:36.615Z,58.3
2022-08-19T04:52:36.602Z,57.62
2022-08-19T04:53:37.535Z,58.55
2022-08-19T04:54:38.497Z,58.3
2022-08-19T04:55:38.323Z,57.75
2022-08-19T04:56:36.613Z,56.59
2022-08-19T04:57:36.598Z,56.38
2022-08-19T04:58:36.599Z,56.54
2022-08-19T04:59:36.601Z,56.48
2022-08-19T05:00:36.653Z,56.66
2022-08-19T05:01:36.622Z,55.7
2022-08-19T05:02:36.610Z,55.73
2022-08-19T05:03:36.590Z,55.54
2022-08-19T05:04:36.589Z,55.4
2022-08-19T05:05:44.652Z,55.9
2022-08-19T05:06:36.593Z,56.32
2022-08-19T05:07:36.594Z,56.55
2022-08-19T05:08:36.590Z,55.37
2022-08-19T05:09:57.136Z,55.32
2022-08-19T05:10:36.586Z,55.51
2022-08-19T05:11:36.609Z,55.41
2022-08-19T05:12:36.579Z,56.16
2022-08-19T05:13:36.605Z,56.21
2022-08-19T05:14:36.589Z,57.59
2022-08-19T05:15:36.584Z,57.96
2022-08-19T05:16:36.586Z,57.39
2022-08-19T05:17:38.886Z,56.6
2022-08-19T05:18:36.575Z,57.68
2022-08-19T05:19:36.567Z,57.53
2022-08-19T05:20:36.574Z,56.83
2022-08-19T05:21:36.584Z,56.56
2022-08-19T05:22:36.575Z,56.66
2022-08-19T05:23:36.563Z,55.76
2022-08-19T05:24:47.432Z,55.68
2022-08-19T05:25:36.568Z,57.16
2022-08-19T05:26:36.577Z,56.68
2022-08-19T05:27:36.566Z,56
2022-08-19T05:28:36.595Z,56.03
2022-08-19T05:29:36.703Z,56.75
2022-08-19T05:30:46.844Z,57.45
2022-08-19T05:31:36.581Z,56.17
2022-08-19T05:32:36.567Z,56.56
2022-08-19T05:33:36.555Z,57.33
2022-08-19T05:34:36.551Z,57.18
2022-08-19T05:35:36.554Z,56.26
2022-08-19T05:36:36.565Z,56.88
2022-08-19T05:37:36.549Z,56.35
2022-08-19T05:38:36.564Z,57.48
2022-08-19T05:39:36.639Z,55.79
2022-08-19T05:40:36.545Z,55.32
2022-08-19T05:41:36.543Z,55.59
2022-08-19T05:42:36.558Z,55.75
2022-08-19T05:43:36.544Z,56.06
2022-08-19T05:44:36.542Z,56.39
2022-08-19T05:45:36.546Z,57.29
2022-08-19T05:46:36.548Z,58.78
2022-08-19T05:47:36.560Z,58.43
2022-08-19T05:48:36.572Z,59.24
2022-08-19T05:49:36.547Z,59.52
2022-08-19T05:50:36.548Z,60.11
2022-08-19T05:51:36.537Z,59.71
2022-08-19T05:52:36.539Z,59.81
2022-08-19T05:53:36.532Z,60.29
2022-08-19T05:54:36.542Z,60.58
2022-08-19T05:55:36.529Z,60.74
2022-08-19T05:56:36.531Z,60.64
2022-08-19T05:57:36.541Z,60.73
2022-08-19T05:58:36.530Z,60.42
2022-08-19T05:59:36.534Z,61.2
2022-08-19T06:00:36.531Z,61.37
2022-08-19T06:01:36.530Z,60.97
2022-08-19T06:02:36.562Z,61.2
2022-08-19T06:03:36.545Z,60.31
2022-08-19T06:04:36.526Z,60.42
2022-08-19T06:05:42.315Z,59.28
2022-08-19T06:06:36.530Z,59.48
2022-08-19T06:07:36.523Z,58.27
2022-08-19T06:08:36.510Z,58.38
2022-08-19T06:09:36.543Z,58.24
2022-08-19T06:10:36.516Z,57.72
2022-08-19T06:11:36.515Z,57.59
2022-08-19T06:12:36.513Z,56.98
2022-08-19T06:13:36.510Z,57.48
2022-08-19T06:14:36.523Z,57.09
2022-08-19T06:15:36.507Z,57.67
2022-08-19T06:16:36.505Z,58.04
2022-08-19T06:17:36.501Z,56.64
2022-08-19T06:18:36.507Z,56.36
2022-08-19T06:19:40.564Z,56.37
2022-08-19T06:20:55.071Z,55.86
2022-08-19T06:21:36.506Z,56.04
2022-08-19T06:22:36.515Z,56.02
2022-08-19T06:23:36.500Z,56.38
2022-08-19T06:24:36.512Z,56.01
2022-08-19T06:25:36.513Z,55.6
2022-08-19T06:26:36.607Z,54.88
2022-08-19T06:27:37.850Z,57.39
2022-08-19T06:28:36.507Z,58.17
2022-08-19T06:29:36.493Z,59.1
2022-08-19T06:30:36.497Z,59.16
2022-08-19T06:31:36.499Z,60.56
2022-08-19T06:32:39.897Z,60.57
2022-08-19T06:33:36.511Z,60.77
2022-08-19T06:34:36.483Z,61.04
2022-08-19T06:35:36.534Z,61.32
2022-08-19T06:36:36.487Z,60.97
2022-08-19T06:37:37.878Z,61.73
2022-08-19T06:38:36.484Z,61.04
2022-08-19T06:39:36.556Z,60
2022-08-19T06:40:36.566Z,61.29
2022-08-19T06:41:39.459Z,61.63
2022-08-19T06:42:36.478Z,62.1
2022-08-19T06:43:36.488Z,61.28
2022-08-19T06:44:40.587Z,61.24
2022-08-19T06:45:39.406Z,61.16
2022-08-19T06:46:36.493Z,60.29
2022-08-19T06:47:36.489Z,61.63
2022-08-19T06:48:45.002Z,61.15
2022-08-19T06:49:36.467Z,60.99
2022-08-19T06:50:39.612Z,61.88
2022-08-19T06:51:36.551Z,61.44
2022-08-19T06:52:38.174Z,60.86
2022-08-19T06:53:36.466Z,60.07
2022-08-19T06:54:37.749Z,60.47
2022-08-19T06:55:36.464Z,60.63
2022-08-19T06:56:36.462Z,60.9
2022-08-19T06:57:36.470Z,60.34
2022-08-19T06:58:36.483Z,59.62
2022-08-19T06:59:36.470Z,59.81
2022-08-19T07:00:36.457Z,59.73
2022-08-19T07:01:36.461Z,60.04
2022-08-19T07:02:36.472Z,58.99
2022-08-19T07:03:37.341Z,59.16
2022-08-19T07:04:36.459Z,58.92
2022-08-19T07:05:36.444Z,59.48
2022-08-19T07:06:43.945Z,57.87
2022-08-19T07:07:36.460Z,58.8
2022-08-19T07:09:36.444Z,58.99
2022-08-19T07:10:36.456Z,57.69
2022-08-19T07:11:36.438Z,57.25
2022-08-19T07:12:38.171Z,57.92
2022-08-19T07:13:36.437Z,57.44
2022-08-19T07:14:36.449Z,57.27
2022-08-19T07:15:36.443Z,56.42
2022-08-19T07:16:37.357Z,56.17
2022-08-19T07:17:36.449Z,55.78
2022-08-19T07:18:36.434Z,58.53
2022-08-19T07:19:36.432Z,58.58
2022-08-19T07:20:36.444Z,58.7
2022-08-19T07:21:37.595Z,59.78
2022-08-19T07:22:36.450Z,58.92
2022-08-19T07:24:36.443Z,57.43
2022-08-19T07:25:36.456Z,58.32
2022-08-19T07:26:36.431Z,56.82
2022-08-19T07:27:36.425Z,56.85
2022-08-19T07:28:36.428Z,56.15
2022-08-19T07:29:36.441Z,57.02
2022-08-19T07:30:36.509Z,57.11
2022-08-19T07:31:36.426Z,56.89
2022-08-19T07:32:36.432Z,56.62
2022-08-19T07:33:36.432Z,56.85
2022-08-19T07:34:36.420Z,56.24
2022-08-19T07:35:36.425Z,55.88
2022-08-19T07:36:36.411Z,55.78
2022-08-19T07:37:36.418Z,55.74
2022-08-19T07:38:36.426Z,55.84
2022-08-19T07:39:36.487Z,56.13
2022-08-19T07:40:36.414Z,54.96
2022-08-19T07:41:36.411Z,56.14
2022-08-19T07:42:36.402Z,55.78
2022-08-19T07:43:36.426Z,55.64
2022-08-19T07:44:36.495Z,55.7
2022-08-19T07:45:36.406Z,57.33
2022-08-19T07:46:36.409Z,57.74
2022-08-19T07:47:50.347Z,57.84
2022-08-19T07:48:36.415Z,58.37
2022-08-19T07:49:36.405Z,57.5
2022-08-19T07:50:36.400Z,58.93
2022-08-19T07:51:37.273Z,59.47
2022-08-19T07:52:36.396Z,58.74
2022-08-19T07:53:39.636Z,59.26
2022-08-19T07:54:36.399Z,58.35
2022-08-19T07:55:41.131Z,59.01
2022-08-19T07:56:36.395Z,59.87
2022-08-19T07:57:36.469Z,59.7
2022-08-19T07:58:36.408Z,59.76
2022-08-19T07:59:36.387Z,58.21
2022-08-19T08:00:36.388Z,57.68
2022-08-19T08:01:36.421Z,58.04
2022-08-19T08:02:36.404Z,58.02
2022-08-19T08:03:36.419Z,56.52
2022-08-19T08:04:36.382Z,55.94
2022-08-19T08:05:38.749Z,55.23
2022-08-19T08:06:36.401Z,54.7
2022-08-19T08:07:36.373Z,54.99
2022-08-19T08:08:36.383Z,54.94
2022-08-19T08:09:39.272Z,55.26
2022-08-19T08:10:36.381Z,55.37
2022-08-19T08:11:36.388Z,55.64
2022-08-19T08:12:36.390Z,55.41
2022-08-19T08:13:36.367Z,55.59
2022-08-19T08:14:36.366Z,55.11
2022-08-19T08:15:41.308Z,55.37
2022-08-19T08:16:39.414Z,54.56
2022-08-19T08:17:49.477Z,54.67
2022-08-19T08:18:36.381Z,54.11
2022-08-19T08:19:36.369Z,53.32
2022-08-19T08:20:36.362Z,53.35
2022-08-19T08:21:36.445Z,53.78
2022-08-19T08:22:36.376Z,53.64
2022-08-19T08:23:36.375Z,53.78
2022-08-19T08:24:36.355Z,55.06
2022-08-19T08:25:36.393Z,56.58
2022-08-19T08:26:36.356Z,55.32
2022-08-19T08:27:36.355Z,56.12
2022-08-19T08:28:36.369Z,56.21
2022-08-19T08:29:36.354Z,56.81
2022-08-19T08:30:36.353Z,56.93
2022-08-19T08:31:36.348Z,58.4
2022-08-19T08:32:36.344Z,58.57
2022-08-19T08:33:36.360Z,58.54
2022-08-19T08:34:36.350Z,57.42
2022-08-19T08:35:36.347Z,58.17
2022-08-19T08:36:36.362Z,57.38
2022-08-19T08:37:36.340Z,56.7
2022-08-19T08:38:39.683Z,56.38
2022-08-19T08:39:36.381Z,55.58
2022-08-19T08:40:36.343Z,55.41
2022-08-19T08:41:36.345Z,55.74
2022-08-19T08:42:36.344Z,55.19
2022-08-19T08:43:36.353Z,54.68
2022-08-19T08:44:36.340Z,55.95
2022-08-19T08:45:41.184Z,55.12
2022-08-19T08:46:36.329Z,53.89
2022-08-19T08:47:36.357Z,53.39
2022-08-19T08:48:36.340Z,55.11
2022-08-19T08:49:36.334Z,57.21
2022-08-19T08:50:36.349Z,57.75
2022-08-19T08:51:36.390Z,58.41
2022-08-19T08:52:36.389Z,57.33
2022-08-19T08:53:40.451Z,57.87
2022-08-19T08:54:36.378Z,58.69
2022-08-19T08:55:36.865Z,58.69
2022-08-19T08:56:36.332Z,57.17
2022-08-19T08:57:40.820Z,58.95
2022-08-19T08:58:36.359Z,58.38
2022-08-19T08:59:36.359Z,58.77
2022-08-19T09:00:36.349Z,58.52
2022-08-19T09:01:36.369Z,57.18
2022-08-19T09:02:36.354Z,57.44
2022-08-19T09:03:36.373Z,57.26
2022-08-19T09:04:36.337Z,57.41
2022-08-19T09:05:39.524Z,57.26
2022-08-19T09:06:36.337Z,56.58
2022-08-19T09:07:38.016Z,55.6
2022-08-19T09:08:36.338Z,55.19
2022-08-19T09:09:36.331Z,55.44
2022-08-19T09:10:36.342Z,55.21
2022-08-19T09:11:42.386Z,55.32
2022-08-19T09:12:36.342Z,55.52
2022-08-19T09:13:37.370Z,56.12
2022-08-19T09:14:52.031Z,55.25
2022-08-19T09:15:36.845Z,55.17
2022-08-19T09:16:36.318Z,55.13
2022-08-19T09:17:36.544Z,55.57
2022-08-19T09:18:36.340Z,55.42
2022-08-19T09:19:36.326Z,56.66
2022-08-19T09:20:36.313Z,55.56
2022-08-19T09:21:36.316Z,55.51
2022-08-19T09:22:36.331Z,55.25
2022-08-19T09:23:36.320Z,55.44
2022-08-19T09:24:36.329Z,54.38
2022-08-19T09:25:36.327Z,54.54
2022-08-19T09:26:47.552Z,54.92
2022-08-19T09:27:42.723Z,54.6
2022-08-19T09:28:36.308Z,54.56
2022-08-19T09:29:36.306Z,54.63
2022-08-19T09:30:36.328Z,54.06
2022-08-19T09:31:36.306Z,54.66
2022-08-19T09:32:36.326Z,54.88
2022-08-19T09:33:36.306Z,53.62
2022-08-19T09:34:37.929Z,54.76
2022-08-19T09:35:50.115Z,55
2022-08-19T09:36:36.316Z,54.56
2022-08-19T09:37:36.314Z,54.58
2022-08-19T09:38:36.296Z,54.63
2022-08-19T09:39:36.299Z,54.55
2022-08-19T09:40:38.514Z,53.9
2022-08-19T09:41:36.298Z,54.68
2022-08-19T09:42:36.298Z,53.71
2022-08-19T09:43:44.600Z,53.58
2022-08-19T09:44:36.310Z,53.63
2022-08-19T09:45:36.292Z,55.06
2022-08-19T09:46:36.292Z,56.38
2022-08-19T09:47:36.317Z,55.59
2022-08-19T09:48:36.307Z,55.62
2022-08-19T09:49:36.315Z,56.22
2022-08-19T09:50:36.284Z,56.48
2022-08-19T09:51:36.289Z,56.3
2022-08-19T09:52:36.295Z,54.63
2022-08-19T09:53:36.295Z,55.4
2022-08-19T09:54:37.077Z,55.34
2022-08-19T09:55:36.285Z,54.18
2022-08-19T09:56:36.293Z,54.2
2022-08-19T09:57:36.274Z,54.96
2022-08-19T09:58:36.294Z,54.63
2022-08-19T09:59:36.288Z,53.34
2022-08-19T10:00:36.274Z,54.52
2022-08-19T10:01:36.286Z,54.92
2022-08-19T10:02:36.276Z,54.14
2022-08-19T10:03:36.306Z,54.18
2022-08-19T10:04:36.266Z,54.27
2022-08-19T10:05:36.280Z,54.24
2022-08-19T10:06:44.098Z,53.46
2022-08-19T10:07:36.761Z,54.71
2022-08-19T10:08:36.261Z,54.91
2022-08-19T10:09:36.259Z,54.79
2022-08-19T10:10:36.259Z,54.18
2022-08-19T10:11:40.623Z,54.32
2022-08-19T10:12:36.260Z,53.91
2022-08-19T10:13:36.260Z,55.16
2022-08-19T10:14:36.281Z,54.62
2022-08-19T10:15:45.234Z,54.8
2022-08-19T10:16:39.563Z,55.2
2022-08-19T10:17:36.257Z,54.27
2022-08-19T10:18:36.252Z,54.46
2022-08-19T10:19:36.242Z,54.37
2022-08-19T10:20:36.247Z,53.82
2022-08-19T10:21:36.266Z,54.27
2022-08-19T10:22:36.257Z,53.91
2022-08-19T10:23:36.244Z,54.2
2022-08-19T10:24:36.248Z,55.49
2022-08-19T10:25:36.241Z,56.3
2022-08-19T10:26:36.255Z,56.64
2022-08-19T10:27:36.242Z,56.5
2022-08-19T10:28:36.239Z,56.78
2022-08-19T10:29:36.234Z,56.72
2022-08-19T10:30:36.234Z,57.23
2022-08-19T10:31:59.835Z,57.31
2022-08-19T10:32:36.237Z,57.61
2022-08-19T10:33:40.939Z,57.33
2022-08-19T10:34:36.255Z,57.72
2022-08-19T10:35:42.796Z,57.93
2022-08-19T10:36:36.236Z,57.42
2022-08-19T10:37:36.235Z,57.94
2022-08-19T10:38:36.227Z,57.34
2022-08-19T10:39:42.474Z,56.33
2022-08-19T10:40:36.303Z,57.06
2022-08-19T10:41:36.224Z,56.07
2022-08-19T10:42:36.238Z,56.48
2022-08-19T10:43:36.224Z,55.85
2022-08-19T10:44:36.222Z,55.56
2022-08-19T10:45:36.240Z,55.13
2022-08-19T10:46:36.228Z,54.38
2022-08-19T10:47:36.244Z,55.85
2022-08-19T10:48:36.210Z,54.64
2022-08-19T10:49:36.220Z,54.67
2022-08-19T10:50:36.224Z,53.83
2022-08-19T10:51:36.229Z,54.34
2022-08-19T10:52:39.119Z,54.03
2022-08-19T10:53:36.211Z,54.23
2022-08-19T10:54:36.211Z,53.96
2022-08-19T10:55:36.210Z,55.36
2022-08-19T10:56:36.220Z,55.53
2022-08-19T10:57:59.318Z,55.19
2022-08-19T10:58:36.207Z,56.67
2022-08-19T10:59:36.390Z,56.81
2022-08-19T11:00:36.205Z,56.93
2022-08-19T11:01:36.299Z,56.65
2022-08-19T11:02:36.249Z,57.42
2022-08-19T11:03:36.243Z,56.3
2022-08-19T11:04:36.204Z,56.78
2022-08-19T11:05:39.868Z,55.81
2022-08-19T11:06:36.197Z,55.64
2022-08-19T11:07:36.195Z,54.76
2022-08-19T11:08:36.220Z,55.5
2022-08-19T11:09:36.207Z,55.02
2022-08-19T11:10:36.195Z,54.72
2022-08-19T11:11:39.352Z,55.86
2022-08-19T11:12:36.195Z,55.17
2022-08-19T11:13:36.224Z,55.13
2022-08-19T11:14:36.190Z,55.03
2022-08-19T11:15:36.179Z,54.74
2022-08-19T11:16:36.201Z,54.15
2022-08-19T11:17:36.183Z,54.82
2022-08-19T11:18:36.184Z,53.95
2022-08-19T11:19:36.182Z,54.84
2022-08-19T11:20:36.186Z,54.97
2022-08-19T11:21:36.197Z,54.49
2022-08-19T11:22:40.579Z,53.62
2022-08-19T11:23:36.189Z,53.31
2022-08-19T11:24:36.172Z,54
2022-08-19T11:25:36.171Z,53.64
2022-08-19T11:26:36.176Z,53.66
2022-08-19T11:27:36.172Z,53.49
2022-08-19T11:28:36.206Z,53.15
2022-08-19T11:29:36.170Z,53.68
2022-08-19T11:30:36.169Z,53.18
2022-08-19T11:31:36.161Z,53.01
2022-08-19T11:32:36.166Z,52.7
2022-08-19T11:33:36.177Z,53.15
2022-08-19T11:34:36.165Z,53.69
2022-08-19T11:35:36.161Z,54.07
2022-08-19T11:36:36.178Z,53.76
2022-08-19T11:37:36.165Z,54.27
2022-08-19T11:38:36.160Z,53.97
2022-08-19T11:39:36.210Z,53.42
2022-08-19T11:40:36.187Z,53.69
2022-08-19T11:41:36.154Z,54.52
2022-08-19T11:42:36.154Z,53.55
2022-08-19T11:43:37.602Z,54.52
2022-08-19T11:44:36.870Z,54.53
2022-08-19T11:45:36.166Z,53.8
2022-08-19T11:46:36.147Z,53.93
2022-08-19T11:47:36.149Z,53.81
2022-08-19T11:48:36.157Z,54.64
2022-08-19T11:49:36.150Z,54.27
2022-08-19T11:50:36.144Z,54.23
2022-08-19T11:51:36.159Z,54.06
2022-08-19T11:52:36.141Z,53.95
2022-08-19T11:53:36.145Z,53.73
2022-08-19T11:54:36.139Z,52.33
2022-08-19T11:55:36.139Z,54.13
2022-08-19T11:56:36.155Z,57.13
2022-08-19T11:57:36.142Z,58.44
2022-08-19T11:58:36.135Z,58.34
2022-08-19T11:59:36.181Z,59.02
2022-08-19T12:00:36.133Z,59.73
2022-08-19T12:01:36.134Z,60.34
2022-08-19T12:02:36.133Z,60.71
2022-08-19T12:03:36.210Z,59.91
2022-08-19T12:04:36.147Z,60.73
2022-08-19T12:05:36.146Z,60.6
2022-08-19T12:06:36.122Z,60.64
2022-08-19T12:07:36.190Z,59.82
2022-08-19T12:08:36.125Z,58.78
2022-08-19T12:09:36.124Z,58.18
2022-08-19T12:10:36.137Z,57.82
2022-08-19T12:11:36.115Z,57.34
2022-08-19T12:12:36.120Z,57.52
2022-08-19T12:13:36.118Z,57.99
2022-08-19T12:14:36.125Z,57.22
2022-08-19T12:15:36.924Z,56.87
2022-08-19T12:16:37.803Z,56.11
2022-08-19T12:17:36.120Z,56.25
2022-08-19T12:18:36.127Z,57.03
2022-08-19T12:19:36.113Z,56.53
2022-08-19T12:20:36.513Z,55.95
2022-08-19T12:21:36.134Z,54.79
2022-08-19T12:22:36.112Z,56.25
2022-08-19T12:23:36.110Z,55.46
2022-08-19T12:24:36.102Z,55.49
2022-08-19T12:25:36.100Z,56.34
2022-08-19T12:26:36.119Z,55.69
2022-08-19T12:27:40.785Z,56.68
2022-08-19T12:28:36.103Z,56.5
2022-08-19T12:29:36.104Z,55.48
2022-08-19T12:30:36.101Z,55.26
2022-08-19T12:31:36.111Z,55.65
2022-08-19T12:32:36.099Z,55.7
2022-08-19T12:33:36.103Z,55.72
2022-08-19T12:34:36.088Z,56.58
2022-08-19T12:35:36.097Z,56.36
2022-08-19T12:36:36.126Z,55.96
2022-08-19T12:37:36.099Z,57.77
2022-08-19T12:38:36.103Z,57.72
2022-08-19T12:39:36.214Z,57.14
2022-08-19T12:40:36.081Z,57.96
2022-08-19T12:41:36.127Z,57.33
2022-08-19T12:42:36.085Z,57.03
2022-08-19T12:43:36.087Z,57.56
2022-08-19T12:44:36.082Z,57
2022-08-19T12:45:36.078Z,57.27
2022-08-19T12:46:36.090Z,58.01
2022-08-19T12:47:38.790Z,58.17
2022-08-19T12:48:36.075Z,57.98
2022-08-19T12:49:53.160Z,58.49
2022-08-19T12:50:36.084Z,57.26
2022-08-19T12:51:36.074Z,57.51
2022-08-19T12:52:36.073Z,57.77
2022-08-19T12:53:39.204Z,58.54
2022-08-19T12:54:36.073Z,57.86
2022-08-19T12:55:36.067Z,57.44
2022-08-19T12:56:36.064Z,56.42
2022-08-19T12:57:36.068Z,56.87